sensor_id;sensor_type;location;lat;lon;timestamp;P1;durP1;ratioP1;P2;durP2;ratioP2
19173;SDS011;9719;49.322;8.536;2023-05-14T00:01:34;3.45;;;2.20;;
19173;SDS011;9719;49.322;8.536;2023-05-14T00:06:37;1.70;;;1.60;;
19173;SDS011;9719;49.322;8.536;2023-05-14T00:11:39;2.78;;;2.45;;
19173;SDS011;9719;49.322;8.536;2023-05-14T00:16:40;1.60;;;1.50;;
19173;SDS011;9719;49.322;8.536;2023-05-14T00:21:43;2.13;;;1.98;;
19173;SDS011;9719;49.322;8.536;2023-05-14T00:26:45;11.98;;;2.13;;
19173;SDS011;9719;49.322;8.536;2023-05-14T00:31:47;1.60;;;1.50;;
19173;SDS011;9719;49.322;8.536;2023-05-14T00:36:50;2.53;;;2.33;;
19173;SDS011;9719;49.322;8.536;2023-05-14T00:41:52;2.03;;;1.83;;
19173;SDS011;9719;49.322;8.536;2023-05-14T00:46:54;1.70;;;1.60;;
19173;SDS011;9719;49.322;8.536;2023-05-14T00:51:57;1.70;;;1.60;;
19173;SDS011;9719;49.322;8.536;2023-05-14T00:56:59;2.10;;;1.85;;
19173;SDS011;9719;49.322;8.536;2023-05-14T01:02:01;2.78;;;1.50;;
19173;SDS011;9719;49.322;8.536;2023-05-14T01:07:08;2.05;;;1.95;;
19173;SDS011;9719;49.322;8.536;2023-05-14T01:12:16;1.67;;;1.58;;
19173;SDS011;9719;49.322;8.536;2023-05-14T01:17:21;1.67;;;1.58;;
19173;SDS011;9719;49.322;8.536;2023-05-14T01:22:29;2.88;;;1.58;;
19173;SDS011;9719;49.322;8.536;2023-05-14T01:27:33;1.83;;;1.73;;
19173;SDS011;9719;49.322;8.536;2023-05-14T01:32:38;1.60;;;1.50;;
19173;SDS011;9719;49.322;8.536;2023-05-14T01:37:43;1.48;;;1.38;;
19173;SDS011;9719;49.322;8.536;2023-05-14T01:42:45;1.83;;;1.73;;
19173;SDS011;9719;49.322;8.536;2023-05-14T01:47:48;2.03;;;1.92;;
19173;SDS011;9719;49.322;8.536;2023-05-14T01:52:51;1.52;;;1.48;;
19173;SDS011;9719;49.322;8.536;2023-05-14T01:57:55;2.15;;;1.63;;
19173;SDS011;9719;49.322;8.536;2023-05-14T02:02:57;1.40;;;1.30;;
19173;SDS011;9719;49.322;8.536;2023-05-14T02:07:59;1.45;;;1.35;;
19173;SDS011;9719;49.322;8.536;2023-05-14T02:13:01;2.08;;;1.95;;
19173;SDS011;9719;49.322;8.536;2023-05-14T02:18:03;1.88;;;1.77;;
19173;SDS011;9719;49.322;8.536;2023-05-14T02:23:06;1.73;;;1.65;;
19173;SDS011;9719;49.322;8.536;2023-05-14T02:28:08;2.25;;;2.03;;
19173;SDS011;9719;49.322;8.536;2023-05-14T02:33:09;2.92;;;2.20;;
19173;SDS011;9719;49.322;8.536;2023-05-14T02:38:12;2.00;;;1.85;;
19173;SDS011;9719;49.322;8.536;2023-05-14T02:43:14;1.42;;;1.33;;
19173;SDS011;9719;49.322;8.536;2023-05-14T02:48:15;1.23;;;1.23;;
19173;SDS011;9719;49.322;8.536;2023-05-14T02:53:18;1.60;;;1.55;;
19173;SDS011;9719;49.322;8.536;2023-05-14T02:58:20;1.63;;;1.52;;
19173;SDS011;9719;49.322;8.536;2023-05-14T03:03:22;3.50;;;1.75;;
19173;SDS011;9719;49.322;8.536;2023-05-14T03:08:25;1.95;;;1.83;;
19173;SDS011;9719;49.322;8.536;2023-05-14T03:13:26;1.90;;;1.73;;
19173;SDS011;9719;49.322;8.536;2023-05-14T03:18:28;2.05;;;1.85;;
19173;SDS011;9719;49.322;8.536;2023-05-14T03:23:31;5.32;;;1.92;;
19173;SDS011;9719;49.322;8.536;2023-05-14T03:28:34;1.98;;;1.58;;
19173;SDS011;9719;49.322;8.536;2023-05-14T03:33:35;1.92;;;1.83;;
19173;SDS011;9719;49.322;8.536;2023-05-14T03:38:38;1.95;;;1.77;;
19173;SDS011;9719;49.322;8.536;2023-05-14T03:43:40;1.63;;;1.40;;
19173;SDS011;9719;49.322;8.536;2023-05-14T03:48:41;2.30;;;1.45;;
19173;SDS011;9719;49.322;8.536;2023-05-14T03:53:45;1.90;;;1.80;;
19173;SDS011;9719;49.322;8.536;2023-05-14T03:58:46;2.08;;;1.88;;
19173;SDS011;9719;49.322;8.536;2023-05-14T04:03:48;1.63;;;1.52;;
19173;SDS011;9719;49.322;8.536;2023-05-14T04:08:51;1.77;;;1.55;;
19173;SDS011;9719;49.322;8.536;2023-05-14T04:13:52;1.42;;;1.33;;
19173;SDS011;9719;49.322;8.536;2023-05-14T04:18:54;1.92;;;1.83;;
19173;SDS011;9719;49.322;8.536;2023-05-14T04:23:57;1.80;;;1.70;;
19173;SDS011;9719;49.322;8.536;2023-05-14T04:28:59;1.98;;;1.70;;
19173;SDS011;9719;49.322;8.536;2023-05-14T04:34:02;2.15;;;1.95;;
19173;SDS011;9719;49.322;8.536;2023-05-14T04:39:05;2.05;;;1.95;;
19173;SDS011;9719;49.322;8.536;2023-05-14T04:44:08;2.03;;;1.80;;
19173;SDS011;9719;49.322;8.536;2023-05-14T04:49:10;1.73;;;1.52;;
19173;SDS011;9719;49.322;8.536;2023-05-14T04:54:13;2.40;;;1.88;;
19173;SDS011;9719;49.322;8.536;2023-05-14T04:59:14;2.72;;;2.53;;
19173;SDS011;9719;49.322;8.536;2023-05-14T05:04:16;4.10;;;2.30;;
19173;SDS011;9719;49.322;8.536;2023-05-14T05:09:19;2.40;;;2.20;;
19173;SDS011;9719;49.322;8.536;2023-05-14T05:14:21;3.10;;;2.58;;
19173;SDS011;9719;49.322;8.536;2023-05-14T05:19:22;4.32;;;2.50;;
19173;SDS011;9719;49.322;8.536;2023-05-14T05:24:26;2.28;;;2.13;;
19173;SDS011;9719;49.322;8.536;2023-05-14T05:29:27;2.72;;;2.53;;
19173;SDS011;9719;49.322;8.536;2023-05-14T05:34:29;3.13;;;2.60;;
19173;SDS011;9719;49.322;8.536;2023-05-14T05:39:32;2.42;;;2.22;;
19173;SDS011;9719;49.322;8.536;2023-05-14T05:44:34;2.55;;;2.35;;
19173;SDS011;9719;49.322;8.536;2023-05-14T05:49:35;2.50;;;2.30;;
19173;SDS011;9719;49.322;8.536;2023-05-14T05:54:38;3.42;;;2.70;;
19173;SDS011;9719;49.322;8.536;2023-05-14T05:59:40;1.98;;;1.88;;
19173;SDS011;9719;49.322;8.536;2023-05-14T06:04:42;3.35;;;2.67;;
19173;SDS011;9719;49.322;8.536;2023-05-14T06:09:45;3.35;;;2.67;;
19173;SDS011;9719;49.322;8.536;2023-05-14T06:14:46;2.67;;;2.47;;
19173;SDS011;9719;49.322;8.536;2023-05-14T06:19:48;2.95;;;2.65;;
19173;SDS011;9719;49.322;8.536;2023-05-14T06:24:51;2.38;;;2.22;;
19173;SDS011;9719;49.322;8.536;2023-05-14T06:29:52;3.25;;;2.95;;
19173;SDS011;9719;49.322;8.536;2023-05-14T06:34:54;3.67;;;3.20;;
19173;SDS011;9719;49.322;8.536;2023-05-14T06:39:57;3.28;;;3.05;;
19173;SDS011;9719;49.322;8.536;2023-05-14T06:44:59;2.83;;;2.63;;
19173;SDS011;9719;49.322;8.536;2023-05-14T06:50:01;4.28;;;3.88;;
19173;SDS011;9719;49.322;8.536;2023-05-14T06:55:04;3.42;;;2.80;;
19173;SDS011;9719;49.322;8.536;2023-05-14T07:00:07;3.03;;;2.83;;
19173;SDS011;9719;49.322;8.536;2023-05-14T07:05:09;3.33;;;2.95;;
19173;SDS011;9719;49.322;8.536;2023-05-14T07:10:12;3.10;;;2.80;;
19173;SDS011;9719;49.322;8.536;2023-05-14T07:15:14;3.60;;;3.10;;
19173;SDS011;9719;49.322;8.536;2023-05-14T07:20:15;3.60;;;3.17;;
19173;SDS011;9719;49.322;8.536;2023-05-14T07:25:18;3.13;;;2.92;;
19173;SDS011;9719;49.322;8.536;2023-05-14T07:30:20;6.05;;;3.08;;
19173;SDS011;9719;49.322;8.536;2023-05-14T07:35:22;3.50;;;3.10;;
19173;SDS011;9719;49.322;8.536;2023-05-14T07:40:25;2.88;;;2.67;;
19173;SDS011;9719;49.322;8.536;2023-05-14T07:45:27;4.07;;;3.17;;
19173;SDS011;9719;49.322;8.536;2023-05-14T07:50:28;2.38;;;2.17;;
19173;SDS011;9719;49.322;8.536;2023-05-14T07:55:31;2.45;;;2.05;;
19173;SDS011;9719;49.322;8.536;2023-05-14T08:00:33;3.97;;;2.63;;
19173;SDS011;9719;49.322;8.536;2023-05-14T08:05:35;2.70;;;2.50;;
19173;SDS011;9719;49.322;8.536;2023-05-14T08:10:38;3.28;;;2.45;;
19173;SDS011;9719;49.322;8.536;2023-05-14T08:15:39;3.40;;;2.65;;
19173;SDS011;9719;49.322;8.536;2023-05-14T08:20:41;3.00;;;2.70;;
19173;SDS011;9719;49.322;8.536;2023-05-14T08:25:44;3.03;;;2.78;;
19173;SDS011;9719;49.322;8.536;2023-05-14T08:30:46;2.70;;;2.50;;
19173;SDS011;9719;49.322;8.536;2023-05-14T08:35:48;3.20;;;3.00;;
19173;SDS011;9719;49.322;8.536;2023-05-14T08:40:52;2.88;;;2.67;;
19173;SDS011;9719;49.322;8.536;2023-05-14T08:45:59;2.90;;;2.67;;
19173;SDS011;9719;49.322;8.536;2023-05-14T08:51:05;3.42;;;3.10;;
19173;SDS011;9719;49.322;8.536;2023-05-14T08:56:09;3.47;;;2.85;;
19173;SDS011;9719;49.322;8.536;2023-05-14T09:01:12;2.65;;;2.03;;
19173;SDS011;9719;49.322;8.536;2023-05-14T09:06:13;3.30;;;2.60;;
19173;SDS011;9719;49.322;8.536;2023-05-14T09:11:17;2.13;;;1.92;;
19173;SDS011;9719;49.322;8.536;2023-05-14T09:16:19;2.40;;;2.30;;
19173;SDS011;9719;49.322;8.536;2023-05-14T09:21:22;3.85;;;2.40;;
19173;SDS011;9719;49.322;8.536;2023-05-14T09:26:25;4.05;;;2.33;;
19173;SDS011;9719;49.322;8.536;2023-05-14T09:31:28;2.53;;;2.33;;
19173;SDS011;9719;49.322;8.536;2023-05-14T09:36:31;2.75;;;2.53;;
19173;SDS011;9719;49.322;8.536;2023-05-14T09:41:36;2.38;;;2.17;;
19173;SDS011;9719;49.322;8.536;2023-05-14T09:46:37;2.92;;;2.63;;
19173;SDS011;9719;49.322;8.536;2023-05-14T09:51:39;2.33;;;2.13;;
19173;SDS011;9719;49.322;8.536;2023-05-14T09:56:42;2.63;;;2.30;;
19173;SDS011;9719;49.322;8.536;2023-05-14T10:01:44;2.10;;;1.90;;
19173;SDS011;9719;49.322;8.536;2023-05-14T10:06:46;2.67;;;2.47;;
19173;SDS011;9719;49.322;8.536;2023-05-14T10:11:52;2.00;;;1.83;;
19173;SDS011;9719;49.322;8.536;2023-05-14T10:16:57;2.45;;;2.22;;
19173;SDS011;9719;49.322;8.536;2023-05-14T10:22:02;2.20;;;2.00;;
19173;SDS011;9719;49.322;8.536;2023-05-14T10:27:08;2.08;;;1.85;;
19173;SDS011;9719;49.322;8.536;2023-05-14T10:32:10;2.35;;;2.25;;
19173;SDS011;9719;49.322;8.536;2023-05-14T10:37:15;2.10;;;2.00;;
19173;SDS011;9719;49.322;8.536;2023-05-14T10:42:20;2.28;;;1.63;;
19173;SDS011;9719;49.322;8.536;2023-05-14T10:47:24;1.88;;;1.77;;
19173;SDS011;9719;49.322;8.536;2023-05-14T10:52:26;2.00;;;1.70;;
19173;SDS011;9719;49.322;8.536;2023-05-14T10:57:30;1.95;;;1.77;;
19173;SDS011;9719;49.322;8.536;2023-05-14T11:02:33;4.03;;;1.98;;
19173;SDS011;9719;49.322;8.536;2023-05-14T11:07:36;2.25;;;2.05;;
19173;SDS011;9719;49.322;8.536;2023-05-14T11:12:42;1.70;;;1.60;;
19173;SDS011;9719;49.322;8.536;2023-05-14T11:17:46;2.53;;;1.92;;
19173;SDS011;9719;49.322;8.536;2023-05-14T11:22:49;1.30;;;1.20;;
19173;SDS011;9719;49.322;8.536;2023-05-14T11:27:52;1.90;;;1.30;;
19173;SDS011;9719;49.322;8.536;2023-05-14T11:32:57;2.70;;;1.58;;
19173;SDS011;9719;49.322;8.536;2023-05-14T11:37:58;1.63;;;1.50;;
19173;SDS011;9719;49.322;8.536;2023-05-14T11:43:01;1.88;;;1.65;;
19173;SDS011;9719;49.322;8.536;2023-05-14T11:48:10;3.35;;;1.42;;
19173;SDS011;9719;49.322;8.536;2023-05-14T11:53:17;2.22;;;1.77;;
19173;SDS011;9719;49.322;8.536;2023-05-14T11:58:20;2.75;;;2.00;;
19173;SDS011;9719;49.322;8.536;2023-05-14T12:03:22;2.30;;;1.77;;
19173;SDS011;9719;49.322;8.536;2023-05-14T12:08:26;1.45;;;1.35;;
19173;SDS011;9719;49.322;8.536;2023-05-14T12:13:30;2.28;;;1.50;;
19173;SDS011;9719;49.322;8.536;2023-05-14T12:18:32;1.58;;;1.48;;
19173;SDS011;9719;49.322;8.536;2023-05-14T12:23:34;1.40;;;1.30;;
19173;SDS011;9719;49.322;8.536;2023-05-14T12:28:39;2.25;;;1.75;;
19173;SDS011;9719;49.322;8.536;2023-05-14T12:33:42;2.88;;;1.67;;
19173;SDS011;9719;49.322;8.536;2023-05-14T12:38:44;1.90;;;1.80;;
19173;SDS011;9719;49.322;8.536;2023-05-14T12:43:47;1.30;;;1.20;;
19173;SDS011;9719;49.322;8.536;2023-05-14T12:48:49;1.42;;;1.35;;
19173;SDS011;9719;49.322;8.536;2023-05-14T12:53:51;3.00;;;1.70;;
19173;SDS011;9719;49.322;8.536;2023-05-14T12:58:54;1.73;;;1.38;;
19173;SDS011;9719;49.322;8.536;2023-05-14T13:03:56;1.75;;;1.63;;
19173;SDS011;9719;49.322;8.536;2023-05-14T13:08:58;1.60;;;1.50;;
19173;SDS011;9719;49.322;8.536;2023-05-14T13:14:02;1.50;;;1.40;;
19173;SDS011;9719;49.322;8.536;2023-05-14T13:19:04;1.70;;;1.60;;
19173;SDS011;9719;49.322;8.536;2023-05-14T13:24:07;1.73;;;1.58;;
19173;SDS011;9719;49.322;8.536;2023-05-14T13:29:10;1.42;;;1.33;;
19173;SDS011;9719;49.322;8.536;2023-05-14T13:34:12;1.48;;;1.38;;
19173;SDS011;9719;49.322;8.536;2023-05-14T13:39:14;1.65;;;1.55;;
19173;SDS011;9719;49.322;8.536;2023-05-14T13:44:17;1.30;;;1.20;;
19173;SDS011;9719;49.322;8.536;2023-05-14T13:49:19;1.50;;;1.30;;
19173;SDS011;9719;49.322;8.536;2023-05-14T13:54:20;1.23;;;1.13;;
19173;SDS011;9719;49.322;8.536;2023-05-14T13:59:23;1.27;;;1.20;;
19173;SDS011;9719;49.322;8.536;2023-05-14T14:04:25;1.30;;;1.20;;
19173;SDS011;9719;49.322;8.536;2023-05-14T14:09:28;1.20;;;1.10;;
19173;SDS011;9719;49.322;8.536;2023-05-14T14:14:35;1.48;;;1.38;;
19173;SDS011;9719;49.322;8.536;2023-05-14T14:19:36;1.85;;;1.63;;
19173;SDS011;9719;49.322;8.536;2023-05-14T14:24:38;1.98;;;1.85;;
19173;SDS011;9719;49.322;8.536;2023-05-14T14:29:41;1.20;;;1.10;;
19173;SDS011;9719;49.322;8.536;2023-05-14T14:34:43;1.90;;;1.73;;
19173;SDS011;9719;49.322;8.536;2023-05-14T14:39:45;1.88;;;1.40;;
19173;SDS011;9719;49.322;8.536;2023-05-14T14:44:48;2.10;;;2.00;;
19173;SDS011;9719;49.322;8.536;2023-05-14T14:49:49;1.65;;;1.55;;
19173;SDS011;9719;49.322;8.536;2023-05-14T14:54:51;1.60;;;1.50;;
19173;SDS011;9719;49.322;8.536;2023-05-14T14:59:55;1.50;;;1.40;;
19173;SDS011;9719;49.322;8.536;2023-05-14T15:04:56;2.20;;;2.00;;
19173;SDS011;9719;49.322;8.536;2023-05-14T15:09:58;1.63;;;1.35;;
19173;SDS011;9719;49.322;8.536;2023-05-14T15:15:01;1.40;;;1.30;;
19173;SDS011;9719;49.322;8.536;2023-05-14T15:20:03;1.40;;;1.30;;
19173;SDS011;9719;49.322;8.536;2023-05-14T15:25:06;1.52;;;1.42;;
19173;SDS011;9719;49.322;8.536;2023-05-14T15:30:10;1.83;;;1.73;;
19173;SDS011;9719;49.322;8.536;2023-05-14T15:35:13;0.95;;;0.95;;
19173;SDS011;9719;49.322;8.536;2023-05-14T15:40:15;1.38;;;1.27;;
19173;SDS011;9719;49.322;8.536;2023-05-14T15:45:18;1.35;;;1.25;;
19173;SDS011;9719;49.322;8.536;2023-05-14T15:50:20;1.40;;;1.30;;
19173;SDS011;9719;49.322;8.536;2023-05-14T15:55:21;2.13;;;1.30;;
19173;SDS011;9719;49.322;8.536;2023-05-14T16:00:24;1.27;;;1.27;;
19173;SDS011;9719;49.322;8.536;2023-05-14T16:05:26;1.13;;;1.00;;
19173;SDS011;9719;49.322;8.536;2023-05-14T16:10:29;1.48;;;1.27;;
19173;SDS011;9719;49.322;8.536;2023-05-14T16:15:32;1.52;;;1.25;;
19173;SDS011;9719;49.322;8.536;2023-05-14T16:20:33;1.25;;;1.15;;
19173;SDS011;9719;49.322;8.536;2023-05-14T16:25:35;1.17;;;1.10;;
19173;SDS011;9719;49.322;8.536;2023-05-14T16:30:38;1.27;;;1.17;;
19173;SDS011;9719;49.322;8.536;2023-05-14T16:35:40;1.15;;;1.05;;
19173;SDS011;9719;49.322;8.536;2023-05-14T16:40:43;0.88;;;0.88;;
19173;SDS011;9719;49.322;8.536;2023-05-14T16:45:46;2.15;;;1.23;;
19173;SDS011;9719;49.322;8.536;2023-05-14T16:50:47;0.88;;;0.88;;
19173;SDS011;9719;49.322;8.536;2023-05-14T16:55:49;1.95;;;1.63;;
19173;SDS011;9719;49.322;8.536;2023-05-14T17:00:52;1.50;;;1.20;;
19173;SDS011;9719;49.322;8.536;2023-05-14T17:05:54;1.45;;;1.38;;
19173;SDS011;9719;49.322;8.536;2023-05-14T17:10:56;1.60;;;1.50;;
19173;SDS011;9719;49.322;8.536;2023-05-14T17:15:59;1.40;;;1.30;;
19173;SDS011;9719;49.322;8.536;2023-05-14T17:21:01;1.00;;;1.00;;
19173;SDS011;9719;49.322;8.536;2023-05-14T17:26:04;1.02;;;0.93;;
19173;SDS011;9719;49.322;8.536;2023-05-14T17:31:08;1.23;;;1.13;;
19173;SDS011;9719;49.322;8.536;2023-05-14T17:36:10;0.70;;;0.70;;
19173;SDS011;9719;49.322;8.536;2023-05-14T17:41:11;1.13;;;1.02;;
19173;SDS011;9719;49.322;8.536;2023-05-14T17:46:14;1.00;;;1.00;;
19173;SDS011;9719;49.322;8.536;2023-05-14T17:51:16;1.13;;;1.02;;
19173;SDS011;9719;49.322;8.536;2023-05-14T17:56:18;1.05;;;0.95;;
19173;SDS011;9719;49.322;8.536;2023-05-14T18:01:21;1.13;;;1.02;;
19173;SDS011;9719;49.322;8.536;2023-05-14T18:06:22;1.40;;;1.30;;
19173;SDS011;9719;49.322;8.536;2023-05-14T18:11:24;1.25;;;1.15;;
19173;SDS011;9719;49.322;8.536;2023-05-14T18:16:32;1.30;;;1.30;;
19173;SDS011;9719;49.322;8.536;2023-05-14T18:21:34;1.50;;;1.30;;
19173;SDS011;9719;49.322;8.536;2023-05-14T18:26:36;1.08;;;0.98;;
19173;SDS011;9719;49.322;8.536;2023-05-14T18:31:39;5.13;;;1.45;;
19173;SDS011;9719;49.322;8.536;2023-05-14T18:36:41;1.70;;;1.60;;
19173;SDS011;9719;49.322;8.536;2023-05-14T18:41:42;1.75;;;1.65;;
19173;SDS011;9719;49.322;8.536;2023-05-14T18:46:45;1.60;;;1.50;;
19173;SDS011;9719;49.322;8.536;2023-05-14T18:51:47;1.13;;;1.02;;
19173;SDS011;9719;49.322;8.536;2023-05-14T18:56:49;3.30;;;1.58;;
19173;SDS011;9719;49.322;8.536;2023-05-14T19:01:52;1.40;;;1.30;;
19173;SDS011;9719;49.322;8.536;2023-05-14T19:06:53;1.67;;;1.58;;
19173;SDS011;9719;49.322;8.536;2023-05-14T19:11:55;1.23;;;1.00;;
19173;SDS011;9719;49.322;8.536;2023-05-14T19:16:58;1.60;;;1.48;;
19173;SDS011;9719;49.322;8.536;2023-05-14T19:22:00;1.40;;;1.30;;
19173;SDS011;9719;49.322;8.536;2023-05-14T19:27:01;1.55;;;1.45;;
19173;SDS011;9719;49.322;8.536;2023-05-14T19:32:05;1.23;;;1.13;;
19173;SDS011;9719;49.322;8.536;2023-05-14T19:37:07;0.90;;;0.90;;
19173;SDS011;9719;49.322;8.536;2023-05-14T19:42:09;1.67;;;1.10;;
19173;SDS011;9719;49.322;8.536;2023-05-14T19:47:12;1.08;;;1.08;;
19173;SDS011;9719;49.322;8.536;2023-05-14T19:52:14;1.02;;;0.98;;
19173;SDS011;9719;49.322;8.536;2023-05-14T19:57:15;0.95;;;0.90;;
19173;SDS011;9719;49.322;8.536;2023-05-14T20:02:18;0.70;;;0.70;;
19173;SDS011;9719;49.322;8.536;2023-05-14T20:07:20;1.05;;;1.05;;
19173;SDS011;9719;49.322;8.536;2023-05-14T20:12:24;0.88;;;0.88;;
19173;SDS011;9719;49.322;8.536;2023-05-14T20:17:27;0.85;;;0.85;;
19173;SDS011;9719;49.322;8.536;2023-05-14T20:22:30;1.13;;;1.10;;
19173;SDS011;9719;49.322;8.536;2023-05-14T20:27:31;0.80;;;0.80;;
19173;SDS011;9719;49.322;8.536;2023-05-14T20:32:34;0.88;;;0.88;;
19173;SDS011;9719;49.322;8.536;2023-05-14T20:37:36;1.05;;;0.88;;
19173;SDS011;9719;49.322;8.536;2023-05-14T20:42:38;0.98;;;0.98;;
19173;SDS011;9719;49.322;8.536;2023-05-14T20:47:41;1.40;;;1.30;;
19173;SDS011;9719;49.322;8.536;2023-05-14T20:52:43;1.02;;;0.98;;
19173;SDS011;9719;49.322;8.536;2023-05-14T20:57:45;0.88;;;0.88;;
19173;SDS011;9719;49.322;8.536;2023-05-14T21:02:49;0.88;;;0.88;;
19173;SDS011;9719;49.322;8.536;2023-05-14T21:07:51;1.10;;;1.10;;
19173;SDS011;9719;49.322;8.536;2023-05-14T21:12:53;1.05;;;1.05;;
19173;SDS011;9719;49.322;8.536;2023-05-14T21:17:56;1.10;;;1.10;;
19173;SDS011;9719;49.322;8.536;2023-05-14T21:22:57;1.67;;;1.20;;
19173;SDS011;9719;49.322;8.536;2023-05-14T21:27:59;0.93;;;0.93;;
19173;SDS011;9719;49.322;8.536;2023-05-14T21:33:02;0.75;;;0.75;;
19173;SDS011;9719;49.322;8.536;2023-05-14T21:38:04;1.20;;;1.10;;
19173;SDS011;9719;49.322;8.536;2023-05-14T21:43:07;0.98;;;0.98;;
19173;SDS011;9719;49.322;8.536;2023-05-14T21:48:10;0.90;;;0.90;;
19173;SDS011;9719;49.322;8.536;2023-05-14T21:53:12;0.90;;;0.90;;
19173;SDS011;9719;49.322;8.536;2023-05-14T21:58:14;1.35;;;1.25;;
19173;SDS011;9719;49.322;8.536;2023-05-14T22:03:17;1.48;;;1.38;;
19173;SDS011;9719;49.322;8.536;2023-05-14T22:08:18;1.40;;;1.23;;
19173;SDS011;9719;49.322;8.536;2023-05-14T22:13:20;0.98;;;0.98;;
19173;SDS011;9719;49.322;8.536;2023-05-14T22:18:23;1.42;;;1.13;;
19173;SDS011;9719;49.322;8.536;2023-05-14T22:23:25;1.08;;;0.95;;
19173;SDS011;9719;49.322;8.536;2023-05-14T22:28:26;1.02;;;1.02;;
19173;SDS011;9719;49.322;8.536;2023-05-14T22:33:29;1.30;;;0.93;;
19173;SDS011;9719;49.322;8.536;2023-05-14T22:38:32;1.00;;;1.00;;
19173;SDS011;9719;49.322;8.536;2023-05-14T22:43:34;0.70;;;0.70;;
19173;SDS011;9719;49.322;8.536;2023-05-14T22:48:37;2.30;;;1.23;;
19173;SDS011;9719;49.322;8.536;2023-05-14T22:53:39;1.10;;;1.10;;
19173;SDS011;9719;49.322;8.536;2023-05-14T22:58:40;1.08;;;1.08;;
19173;SDS011;9719;49.322;8.536;2023-05-14T23:03:43;1.42;;;1.15;;
19173;SDS011;9719;49.322;8.536;2023-05-14T23:08:45;1.15;;;1.05;;
19173;SDS011;9719;49.322;8.536;2023-05-14T23:13:47;0.82;;;0.80;;
19173;SDS011;9719;49.322;8.536;2023-05-14T23:18:50;1.10;;;1.08;;
19173;SDS011;9719;49.322;8.536;2023-05-14T23:23:52;1.30;;;1.30;;
19173;SDS011;9719;49.322;8.536;2023-05-14T23:28:53;1.08;;;1.02;;
19173;SDS011;9719;49.322;8.536;2023-05-14T23:33:56;1.02;;;1.02;;
19173;SDS011;9719;49.322;8.536;2023-05-14T23:38:58;1.10;;;1.10;;
19173;SDS011;9719;49.322;8.536;2023-05-14T23:44:00;1.00;;;1.00;;
19173;SDS011;9719;49.322;8.536;2023-05-14T23:49:03;1.45;;;1.35;;
19173;SDS011;9719;49.322;8.536;2023-05-14T23:54:05;2.08;;;1.23;;
19173;SDS011;9719;49.322;8.536;2023-05-14T23:59:07;1.38;;;1.27;;
